CheckWX is a tool to help pilots better visualize weather data.  It is not intended as a substitute for an official pre-flight weather briefing.

00:38:20 UTC

KPAH TAF
Barkley Regional Airport
Paducah, Kentucky, USA
KPAH 260520Z 2606/2706 14008KT P6SM FEW250 FM261300 16009KT P6SM SCT200 FM261600 16011KT P6SM BKN100 FM262100 15010KT P6SM VCSH SCT040 BKN080 FM270000 15007KT P6SM FEW040 SCT100

May-26@
06:00 UTC

May-26 @ 06:00 UTC

May-26@
13:00 UTC

May-26 @ 13:00 UTC

TAF KPAH 260520Z 2606/2706 14008KT P6SM FEW250

Expired

Wind
  • 140° at 8 KTS
Cloud Levels
  • Few at 25,000' AGL

May-26@
13:00 UTC

May-26 @ 13:00 UTC

May-26@
16:00 UTC

May-26 @ 16:00 UTC

FM261300 16009KT P6SM SCT200

Expired

Wind
  • 160° at 9 KTS
Cloud Levels
  • Scattered at 20,000' AGL

May-26@
16:00 UTC

May-26 @ 16:00 UTC

May-26@
21:00 UTC

May-26 @ 21:00 UTC

FM261600 16011KT P6SM BKN100

Expired

Wind
  • 160° at 11 KTS
Cloud Levels
  • Broken at 10,000' AGL

May-26@
21:00 UTC

May-26 @ 21:00 UTC

May-27@
00:00 UTC

May-27 @ 00:00 UTC

FM262100 15010KT P6SM VCSH SCT040 BKN080

Expired

Wind
  • 150° at 10 KTS
Conditions
Area Showers
Cloud Levels
  • Scattered at 4,000' AGL
  • Broken at 8,000' AGL

May-27@
00:00 UTC

May-27 @ 00:00 UTC

May-27@
06:00 UTC

May-27 @ 06:00 UTC

FM270000 15007KT P6SM FEW040 SCT100

From

From Standard forecast or significant change

Wind
  • 150° at 7 KTS
Cloud Levels
  • Few at 4,000' AGL
  • Scattered at 10,000' AGL